Time;durP1;ratioP1;P1;durP2;ratioP2;P2;SDS_P1;SDS_P2;PMS_P1;PMS_P2;Temp;Humidity;BMP_temperature;BMP_pressure;BME280_temperature;BME280_humidity;BME280_pressure;Samples;Min_cycle;Max_cycle;Signal;HPM_P1;HPM_P2
2022/10/13 00:00:47;;;;;;;5.77;4.00;;;5.80;98.30;;;;;;4989696;28;20496;-49
2022/10/13 00:03:14;;;;;;;5.40;3.60;;;5.80;97.50;;;;;;4990597;28;20456;-49
2022/10/13 00:05:42;;;;;;;6.00;3.53;;;5.80;95.50;;;;;;4994673;28;20499;-49
2022/10/13 00:08:11;;;;;;;7.20;4.60;;;5.80;95.40;;;;;;4990088;28;20516;-49
2022/10/13 00:10:39;;;;;;;6.80;4.10;;;5.90;96.30;;;;;;4990849;28;20500;-49
2022/10/13 00:13:07;;;;;;;7.50;4.27;;;5.80;97.30;;;;;;4989178;28;20527;-49
2022/10/13 00:15:37;;;;;;;8.00;3.83;;;5.80;95.70;;;;;;4989042;28;21017;-50
2022/10/13 00:18:04;;;;;;;10.40;4.53;;;5.90;96.50;;;;;;4994120;28;20492;-49
2022/10/13 00:20:30;;;;;;;11.50;4.67;;;5.90;96.10;;;;;;4988597;28;20460;-49
2022/10/13 00:22:57;;;;;;;11.37;4.50;;;5.90;95.50;;;;;;4991848;28;20546;-49
2022/10/13 00:25:25;;;;;;;12.00;4.63;;;5.90;88.60;;;;;;4989399;28;20512;-49
2022/10/13 00:27:51;;;;;;;7.53;4.83;;;5.90;90.00;;;;;;4991655;28;20464;-49
2022/10/13 00:30:18;;;;;;;7.20;3.87;;;5.90;90.00;;;;;;4991976;28;20472;-49
2022/10/13 00:32:44;;;;;;;8.63;4.20;;;5.90;88.50;;;;;;4991789;28;20570;-49
2022/10/13 00:35:11;;;;;;;8.30;5.10;;;6.00;86.00;;;;;;4990793;28;20534;-49
2022/10/13 00:37:38;;;;;;;10.93;5.03;;;6.00;88.50;;;;;;4992451;28;20519;-49
2022/10/13 00:40:06;;;;;;;8.00;4.80;;;6.00;85.90;;;;;;4990373;28;20492;-48
2022/10/13 00:42:34;;;;;;;12.43;5.83;;;6.00;90.50;;;;;;4988956;28;20524;-49
2022/10/13 00:45:15;;;;;;;12.80;6.33;;;6.00;88.40;;;;;;4994059;28;20512;-50
2022/10/13 00:47:44;;;;;;;15.27;6.83;;;6.00;87.90;;;;;;4991677;28;20464;-50
2022/10/13 00:50:14;;;;;;;19.20;8.23;;;6.00;87.70;;;;;;4991134;28;20552;-49
2022/10/13 00:52:42;;;;;;;12.60;7.00;;;6.00;85.40;;;;;;4992424;28;20468;-49
2022/10/13 00:55:11;;;;;;;9.40;6.40;;;6.00;86.90;;;;;;4990976;28;20570;-49
2022/10/13 00:57:41;;;;;;;13.10;5.27;;;6.00;86.80;;;;;;4991111;28;20542;-49
2022/10/13 01:00:09;;;;;;;8.23;5.03;;;6.00;86.80;;;;;;4987359;28;20514;-49
2022/10/13 01:02:37;;;;;;;9.00;6.30;;;6.10;74.20;;;;;;4991968;28;20648;-49
2022/10/13 01:05:05;;;;;;;10.23;5.87;;;6.00;83.20;;;;;;4993125;28;20488;-49
2022/10/13 01:07:33;;;;;;;8.87;5.30;;;6.00;82.30;;;;;;4983756;28;20833;-48
2022/10/13 01:10:01;;;;;;;13.23;5.40;;;6.10;77.40;;;;;;4989229;28;20567;-50
2022/10/13 01:12:38;;;;;;;7.97;4.53;;;6.10;78.50;;;;;;4992721;28;20456;-49
2022/10/13 01:15:13;;;;;;;12.77;5.97;;;6.10;82.20;;;;;;4993104;28;20508;-49
2022/10/13 01:17:50;;;;;;;15.53;6.50;;;6.00;81.90;;;;;;4988659;28;20460;-49
2022/10/13 01:20:48;;;;;;;21.23;6.60;;;6.00;83.10;;;;;;4989191;28;20484;-49
2022/10/13 01:23:39;;;;;;;12.97;7.60;;;6.00;83.90;;;;;;4985897;28;20479;-50
2022/10/13 01:26:56;;;;;;;13.93;8.20;;;6.00;82.40;;;;;;4991694;28;20511;-49
2022/10/13 01:29:59;;;;;;;10.83;6.03;;;5.90;82.00;;;;;;4988842;28;20568;-50
2022/10/13 01:32:31;;;;;;;10.40;5.93;;;5.90;82.80;;;;;;4952741;28;20957;-49
2022/10/13 01:35:05;;;;;;;16.80;7.13;;;5.90;79.30;;;;;;4989688;28;20480;-49
2022/10/13 01:37:40;;;;;;;13.80;6.97;;;5.90;77.80;;;;;;4997199;28;20518;-49
2022/10/13 01:40:13;;;;;;;7.93;5.80;;;5.90;81.80;;;;;;4985329;28;20528;-49
2022/10/13 01:42:46;;;;;;;12.03;7.37;;;5.90;80.30;;;;;;4986850;28;20460;-50
2022/10/13 01:45:17;;;;;;;24.50;8.50;;;5.80;81.20;;;;;;4986173;28;20582;-49
2022/10/13 01:47:47;;;;;;;21.43;11.80;;;5.80;80.60;;;;;;4992512;28;20465;-49
2022/10/13 01:50:16;;;;;;;23.17;12.10;;;5.80;79.90;;;;;;4992601;28;20484;-49
2022/10/13 01:52:43;;;;;;;14.93;6.93;;;5.70;76.90;;;;;;4991069;28;20457;-50
2022/10/13 01:55:12;;;;;;;9.60;5.40;;;5.70;76.10;;;;;;4984447;28;20491;-49
2022/10/13 01:57:41;;;;;;;13.60;7.30;;;5.70;75.20;;;;;;4992087;28;20465;-49
2022/10/13 02:00:10;;;;;;;9.40;5.10;;;5.70;77.90;;;;;;4992538;28;20465;-49
2022/10/13 02:02:43;;;;;;;15.10;7.80;;;5.70;75.90;;;;;;4989422;28;21040;-49
2022/10/13 02:05:19;;;;;;;14.60;8.20;;;5.60;75.20;;;;;;4990305;28;20483;-49
2022/10/13 02:07:49;;;;;;;15.17;8.23;;;5.60;75.40;;;;;;4986228;28;20469;-50
2022/10/13 02:10:22;;;;;;;11.13;5.47;;;5.60;74.70;;;;;;4991355;28;20484;-49
2022/10/13 02:12:51;;;;;;;16.80;6.33;;;5.60;70.30;;;;;;4995780;28;20503;-49
2022/10/13 02:15:21;;;;;;;8.43;4.60;;;5.70;67.90;;;;;;4987209;28;20489;-49
2022/10/13 02:17:48;;;;;;;7.23;4.60;;;5.70;69.50;;;;;;4992304;28;20465;-49
2022/10/13 02:20:19;;;;;;;9.43;5.10;;;5.60;70.70;;;;;;4989250;28;20524;-49
2022/10/13 02:22:49;;;;;;;9.10;5.77;;;5.60;66.60;;;;;;4984058;28;20469;-50
2022/10/13 02:25:16;;;;;;;7.07;5.57;;;5.70;62.70;;;;;;4988204;28;20515;-49
2022/10/13 02:27:43;;;;;;;9.33;4.87;;;5.80;60.30;;;;;;4996032;28;20465;-49
2022/10/13 02:30:19;;;;;;;10.83;5.10;;;5.70;67.00;;;;;;4991128;28;20990;-49
2022/10/13 02:32:46;;;;;;;10.97;5.47;;;5.70;67.20;;;;;;4985984;28;20494;-49
2022/10/13 02:35:12;;;;;;;11.20;5.03;;;5.80;68.10;;;;;;4989827;28;20542;-49
2022/10/13 02:37:40;;;;;;;8.17;5.20;;;5.80;62.50;;;;;;4990715;28;20460;-48
2022/10/13 02:40:08;;;;;;;11.90;5.53;;;5.80;57.30;;;;;;4988809;28;20523;-48
2022/10/13 02:42:35;;;;;;;9.00;5.00;;;5.80;60.10;;;;;;4990422;28;20825;-49
2022/10/13 02:45:02;;;;;;;10.63;5.23;;;5.90;55.70;;;;;;4989446;28;20899;-49
2022/10/13 02:47:28;;;;;;;6.77;4.50;;;5.90;58.70;;;;;;4988719;28;20460;-49
2022/10/13 02:49:55;;;;;;;5.00;4.50;;;5.90;62.30;;;;;;4993660;28;20598;-49
2022/10/13 02:52:21;;;;;;;6.83;4.47;;;5.90;65.40;;;;;;4987785;28;20468;-49
2022/10/13 02:54:49;;;;;;;10.23;5.37;;;5.90;61.10;;;;;;4991169;28;20484;-49
2022/10/13 02:57:17;;;;;;;10.50;5.00;;;5.80;55.20;;;;;;4986537;28;21021;-48
2022/10/13 02:59:44;;;;;;;11.00;5.20;;;5.90;50.90;;;;;;4988889;28;20484;-49
2022/10/13 03:02:10;;;;;;;8.77;4.77;;;5.90;56.50;;;;;;4990637;28;20510;-48
2022/10/13 03:04:37;;;;;;;9.90;4.93;;;5.90;58.70;;;;;;4991264;28;20539;-46
2022/10/13 03:07:04;;;;;;;9.83;5.27;;;5.80;63.90;;;;;;4989397;28;20468;-46
2022/10/13 03:09:31;;;;;;;7.33;4.63;;;5.80;66.00;;;;;;4986725;28;20554;-45
2022/10/13 03:11:59;;;;;;;7.00;4.40;;;5.80;66.70;;;;;;4985594;28;20546;-46
2022/10/13 03:14:25;;;;;;;10.23;5.27;;;5.70;68.30;;;;;;4988256;28;20484;-46
2022/10/13 03:16:52;;;;;;;11.17;5.70;;;5.70;66.40;;;;;;4987857;28;20461;-46
2022/10/13 03:19:18;;;;;;;9.73;4.30;;;5.70;61.70;;;;;;4987581;28;20464;-46
2022/10/13 03:21:45;;;;;;;8.33;5.20;;;5.70;59.60;;;;;;4981612;28;20465;-46
2022/10/13 03:24:12;;;;;;;12.63;4.57;;;5.70;61.40;;;;;;4988257;28;20484;-46
2022/10/13 03:26:38;;;;;;;10.90;5.00;;;5.70;61.80;;;;;;4989002;28;21013;-46
2022/10/13 03:29:06;;;;;;;8.90;5.83;;;5.60;61.90;;;;;;4989328;28;21012;-46
2022/10/13 03:31:33;;;;;;;13.90;4.97;;;5.70;51.40;;;;;;4985076;28;20495;-45
2022/10/13 03:33:59;;;;;;;14.67;5.90;;;5.80;50.80;;;;;;4988675;28;20484;-46
2022/10/13 03:36:26;;;;;;;7.47;5.20;;;5.80;39.50;;;;;;4990453;28;21388;-45
2022/10/13 03:38:52;;;;;;;9.80;5.70;;;5.90;40.50;;;;;;4989285;28;20464;-46
2022/10/13 03:41:19;;;;;;;11.90;6.47;;;6.00;36.70;;;;;;4989012;28;20461;-45
2022/10/13 03:43:46;;;;;;;12.13;7.17;;;6.10;32.50;;;;;;4987841;28;20494;-45
2022/10/13 03:46:16;;;;;;;10.47;5.97;;;6.20;23.80;;;;;;4989250;28;20464;-46
2022/10/13 03:48:43;;;;;;;8.00;5.60;;;6.20;20.80;;;;;;4991588;28;20938;-46
2022/10/13 03:51:12;;;;;;;14.20;6.10;;;6.30;80.20;;;;;;4990277;28;20551;-46
2022/10/13 03:53:39;;;;;;;7.23;5.90;;;6.40;78.00;;;;;;4991843;28;20484;-46
2022/10/13 03:56:06;;;;;;;12.00;6.10;;;6.50;22.60;;;;;;4993901;28;20464;-46
2022/10/13 03:58:33;;;;;;;12.67;5.53;;;6.50;22.40;;;;;;4993913;28;20880;-46
2022/10/13 04:01:04;;;;;;;10.13;6.00;;;6.50;23.50;;;;;;4992881;28;21905;-46
2022/10/13 04:03:32;;;;;;;9.87;6.77;;;6.60;23.20;;;;;;4992848;28;20471;-46
2022/10/13 04:06:01;;;;;;;14.33;11.37;;;6.60;26.60;;;;;;4990875;28;21214;-46
2022/10/13 04:08:28;;;;;;;12.07;7.30;;;6.60;26.00;;;;;;4987192;28;20857;-45
2022/10/13 04:10:59;;;;;;;13.20;7.20;;;6.60;26.20;;;;;;4993548;28;20539;-45
2022/10/13 04:13:25;;;;;;;10.03;5.07;;;6.70;26.40;;;;;;4991666;28;20543;-45
2022/10/13 04:15:52;;;;;;;13.10;6.10;;;6.70;29.60;;;;;;4995588;28;20511;-46
2022/10/13 04:18:18;;;;;;;16.63;7.27;;;6.70;30.30;;;;;;4990705;28;20469;-45
2022/10/13 04:20:46;;;;;;;10.93;6.70;;;6.70;30.30;;;;;;4994280;28;20463;-45
2022/10/13 04:23:13;;;;;;;21.60;6.47;;;6.70;28.70;;;;;;4991700;28;20468;-45
2022/10/13 04:25:40;;;;;;;7.67;5.77;;;6.70;29.90;;;;;;4993827;28;20515;-46
2022/10/13 04:28:07;;;;;;;11.03;5.90;;;6.70;31.30;;;;;;4994492;28;20491;-46
2022/10/13 04:30:34;;;;;;;11.77;6.57;;;6.80;29.50;;;;;;4980302;28;20485;-46
2022/10/13 04:33:02;;;;;;;12.33;5.97;;;6.80;37.30;;;;;;4999331;28;20475;-46
2022/10/13 04:35:28;;;;;;;11.57;6.60;;;6.80;34.00;;;;;;4994609;28;20484;-46
2022/10/13 04:37:57;;;;;;;10.67;6.00;;;6.80;33.90;;;;;;4989188;28;20539;-47
2022/10/13 04:40:24;;;;;;;9.03;6.00;;;6.80;35.40;;;;;;4990600;28;20464;-46
2022/10/13 04:42:50;;;;;;;10.90;6.30;;;6.80;36.10;;;;;;4988729;28;20468;-45
2022/10/13 04:45:17;;;;;;;11.73;6.60;;;6.70;39.40;;;;;;4993090;28;20496;-45
2022/10/13 04:47:44;;;;;;;8.40;6.53;;;6.80;38.20;;;;;;4986416;28;20890;-45
2022/10/13 04:50:10;;;;;;;14.47;6.73;;;6.80;34.90;;;;;;4992238;28;20479;-47
2022/10/13 04:52:37;;;;;;;13.50;7.37;;;6.80;34.90;;;;;;4992807;28;20522;-46
2022/10/13 04:55:06;;;;;;;12.20;6.80;;;6.70;37.30;;;;;;4991407;28;20877;-46
2022/10/13 04:57:33;;;;;;;14.10;6.00;;;6.80;36.20;;;;;;4992184;28;20467;-46
2022/10/13 04:59:59;;;;;;;10.47;6.70;;;6.70;37.10;;;;;;4994785;28;20495;-46
2022/10/13 05:02:26;;;;;;;15.60;6.87;;;6.80;37.10;;;;;;4990282;28;20507;-45
2022/10/13 05:04:53;;;;;;;14.83;7.10;;;6.80;36.10;;;;;;4992401;28;20554;-45
2022/10/13 05:07:19;;;;;;;9.90;7.00;;;6.80;36.80;;;;;;4990369;28;20460;-45
2022/10/13 05:09:46;;;;;;;12.03;6.70;;;6.70;39.50;;;;;;4992617;28;20484;-45
2022/10/13 05:12:15;;;;;;;11.20;6.67;;;6.70;34.60;;;;;;4990114;28;20476;-46
2022/10/13 05:14:41;;;;;;;32.30;6.73;;;6.70;35.80;;;;;;4992834;28;20511;-47
2022/10/13 05:17:08;;;;;;;10.60;6.93;;;6.70;38.20;;;;;;4987895;28;20466;-45
2022/10/13 05:19:34;;;;;;;18.40;7.30;;;6.70;39.50;;;;;;4990377;28;20884;-47
2022/10/13 05:22:01;;;;;;;17.00;8.43;;;6.60;36.50;;;;;;4989754;28;20474;-46
2022/10/13 05:24:35;;;;;;;17.40;7.30;;;6.60;36.10;;;;;;4993647;28;20543;-47
2022/10/13 05:27:03;;;;;;;14.93;7.10;;;6.60;37.70;;;;;;4990436;28;20464;-45
2022/10/13 05:29:31;;;;;;;11.40;6.80;;;6.60;31.50;;;;;;4991260;28;20958;-45
2022/10/13 05:31:57;;;;;;;17.70;7.33;;;6.60;30.90;;;;;;4992936;28;21275;-46
2022/10/13 05:34:24;;;;;;;14.00;7.30;;;6.70;30.90;;;;;;4989859;28;20477;-45
2022/10/13 05:36:50;;;;;;;15.97;6.90;;;6.70;31.60;;;;;;4992388;28;20491;-46
2022/10/13 05:39:17;;;;;;;11.70;6.23;;;6.70;29.00;;;;;;4988383;28;20462;-45
2022/10/13 05:41:44;;;;;;;16.43;7.83;;;6.70;28.70;;;;;;4986847;28;20456;-45
2022/10/13 05:44:10;;;;;;;8.73;6.50;;;6.70;29.90;;;;;;4987292;28;20476;-45
2022/10/13 05:46:38;;;;;;;13.57;7.23;;;6.70;28.20;;;;;;4990308;28;20887;-45
2022/10/13 05:49:05;;;;;;;10.77;7.20;;;6.70;29.30;;;;;;4987011;28;20471;-45
2022/10/13 05:51:35;;;;;;;13.97;7.30;;;6.70;28.40;;;;;;4983843;28;20484;-46
2022/10/13 05:54:06;;;;;;;12.10;7.03;;;6.70;26.70;;;;;;4988214;28;20480;-46
2022/10/13 05:56:37;;;;;;;8.77;6.60;;;6.70;28.40;;;;;;4986232;28;20958;-45
2022/10/13 05:59:07;;;;;;;17.57;7.83;;;6.80;28.00;;;;;;4989638;28;20464;-45
2022/10/13 06:01:39;;;;;;;17.07;12.93;;;6.70;26.90;;;;;;4980951;28;20515;-46
2022/10/13 06:04:09;;;;;;;17.27;9.00;;;6.80;25.00;;;;;;4981302;28;20520;-46
2022/10/13 06:06:36;;;;;;;12.63;8.03;;;6.80;27.00;;;;;;4984105;28;20901;-46
2022/10/13 06:09:03;;;;;;;14.60;8.23;;;6.90;25.70;;;;;;4986557;28;20460;-46
2022/10/13 06:11:30;;;;;;;14.03;7.67;;;6.90;27.80;;;;;;4984212;28;20521;-45
2022/10/13 06:13:56;;;;;;;11.53;8.40;;;6.90;26.80;;;;;;4988263;28;21055;-46
2022/10/13 06:16:23;;;;;;;11.83;8.47;;;6.80;29.20;;;;;;4985478;28;20551;-46
2022/10/13 06:18:51;;;;;;;25.63;7.90;;;6.90;29.10;;;;;;4986581;28;20468;-45
2022/10/13 06:21:17;;;;;;;12.90;8.80;;;6.90;29.70;;;;;;4983663;28;20675;-46
2022/10/13 06:23:44;;;;;;;19.10;8.23;;;6.90;31.20;;;;;;4988539;28;20485;-45
2022/10/13 06:26:11;;;;;;;15.83;7.47;;;6.90;30.10;;;;;;4986848;28;20465;-46
2022/10/13 06:28:37;;;;;;;18.27;9.23;;;6.90;30.40;;;;;;4991719;28;20974;-45
2022/10/13 06:31:05;;;;;;;17.93;7.50;;;6.90;31.20;;;;;;4988890;28;20484;-47
2022/10/13 06:33:33;;;;;;;23.93;8.00;;;7.00;32.20;;;;;;4992888;28;20495;-46
2022/10/13 06:36:02;;;;;;;19.93;8.70;;;7.00;28.80;;;;;;4988404;28;20468;-45
2022/10/13 06:38:29;;;;;;;15.20;8.20;;;7.00;29.80;;;;;;4989851;28;20465;-46
2022/10/13 06:40:59;;;;;;;16.17;7.40;;;7.00;30.00;;;;;;4993455;28;20461;-46
2022/10/13 06:43:26;;;;;;;18.43;8.00;;;6.90;30.30;;;;;;4990474;28;20527;-46
2022/10/13 06:45:52;;;;;;;14.90;7.60;;;7.00;28.50;;;;;;4984122;28;20571;-46
2022/10/13 06:48:19;;;;;;;16.80;8.53;;;7.00;26.50;;;;;;4988015;28;20519;-46
2022/10/13 06:50:47;;;;;;;11.73;6.70;;;7.00;25.20;;;;;;4984093;28;20485;-45
2022/10/13 06:53:15;;;;;;;16.07;7.00;;;7.00;26.20;;;;;;4981375;28;20955;-46
2022/10/13 06:55:42;;;;;;;13.43;7.47;;;7.00;24.40;;;;;;4985546;28;20465;-47
2022/10/13 06:58:09;;;;;;;15.07;8.30;;;7.10;24.40;;;;;;4993272;28;20457;-48
2022/10/13 07:00:35;;;;;;;20.80;8.80;;;7.10;25.50;;;;;;4990813;28;20881;-47
2022/10/13 07:03:02;;;;;;;15.57;8.10;;;7.10;26.60;;;;;;4990923;28;21037;-46
2022/10/13 07:05:29;;;;;;;19.03;8.73;;;7.10;25.90;;;;;;4989062;28;20507;-47
2022/10/13 07:07:55;;;;;;;10.30;7.80;;;7.10;24.30;;;;;;4990324;28;20482;-48
2022/10/13 07:10:23;;;;;;;16.00;8.57;;;7.20;23.50;;;;;;4991791;28;20484;-47
2022/10/13 07:12:50;;;;;;;14.53;7.90;;;7.20;23.00;;;;;;4990483;28;20547;-46
2022/10/13 07:15:16;;;;;;;18.50;8.00;;;7.40;21.20;;;;;;4982292;28;20484;-48
2022/10/13 07:17:43;;;;;;;15.73;8.63;;;7.40;20.30;;;;;;4987308;28;21089;-47
2022/10/13 07:20:10;;;;;;;14.67;8.20;;;7.50;21.70;;;;;;4982568;28;21560;-47
2022/10/13 07:22:37;;;;;;;16.73;8.17;;;7.70;24.30;;;;;;4989056;28;20559;-47
2022/10/13 07:25:04;;;;;;;17.13;8.43;;;7.80;25.40;;;;;;4988611;28;20483;-47
2022/10/13 07:27:32;;;;;;;17.00;8.90;;;7.90;26.40;;;;;;4995677;28;20939;-47
2022/10/13 07:29:58;;;;;;;14.17;8.23;;;8.10;34.80;;;;;;4991867;28;20491;-47
2022/10/13 07:32:25;;;;;;;19.50;9.60;;;8.20;36.60;;;;;;4996178;28;20543;-47
2022/10/13 07:34:53;;;;;;;22.13;10.07;;;8.30;50.50;;;;;;4995370;28;20501;-47
2022/10/13 07:37:19;;;;;;;16.23;8.77;;;8.30;55.00;;;;;;4992379;28;21014;-47
2022/10/13 07:39:46;;;;;;;20.33;10.27;;;8.40;55.50;;;;;;4995250;28;20448;-47
2022/10/13 07:42:13;;;;;;;16.80;10.43;;;8.40;59.00;;;;;;4992829;28;20511;-47
2022/10/13 07:44:40;;;;;;;18.63;9.43;;;8.40;59.40;;;;;;4996107;28;20986;-45
2022/10/13 07:47:07;;;;;;;20.60;9.87;;;8.50;59.20;;;;;;4990183;28;20488;-45
2022/10/13 07:49:34;;;;;;;23.73;10.07;;;8.60;65.80;;;;;;4993804;28;20468;-46
2022/10/13 07:52:00;;;;;;;36.87;10.27;;;8.70;66.80;;;;;;4991333;28;20484;-46
2022/10/13 07:54:27;;;;;;;24.50;10.53;;;8.70;68.70;;;;;;4995143;28;20607;-46
2022/10/13 07:56:55;;;;;;;21.13;9.83;;;8.90;64.50;;;;;;4993498;28;20464;-46
2022/10/13 07:59:21;;;;;;;19.47;10.23;;;9.00;71.40;;;;;;4991102;28;20535;-46
2022/10/13 08:01:49;;;;;;;20.57;10.53;;;9.20;80.90;;;;;;4990938;28;20456;-47
2022/10/13 08:04:16;;;;;;;16.10;11.17;;;9.30;83.10;;;;;;4989217;28;21068;-45
2022/10/13 08:06:43;;;;;;;18.80;10.93;;;9.40;89.50;;;;;;4992458;28;20464;-45
2022/10/13 08:09:10;;;;;;;24.60;11.53;;;9.50;90.90;;;;;;4991854;28;20532;-47
2022/10/13 08:11:37;;;;;;;12.93;10.20;;;9.60;91.00;;;;;;4991226;28;20511;-45
2022/10/13 08:14:04;;;;;;;21.53;10.37;;;9.70;91.70;;;;;;4996609;28;20468;-47
2022/10/13 08:16:32;;;;;;;17.47;10.80;;;9.80;99.90;;;;;;4991833;28;20456;-47
2022/10/13 08:19:00;;;;;;;20.03;11.50;;;9.80;99.90;;;;;;4993755;28;20468;-45
2022/10/13 08:21:28;;;;;;;21.33;11.07;;;9.90;99.90;;;;;;4985835;28;20879;-46
2022/10/13 08:23:54;;;;;;;15.87;10.13;;;9.90;99.90;;;;;;4991717;28;20479;-47
2022/10/13 08:26:24;;;;;;;24.50;11.80;;;10.00;97.60;;;;;;4994803;28;20499;-46
2022/10/13 08:28:50;;;;;;;14.17;10.50;;;10.00;99.90;;;;;;4992545;28;20465;-45
2022/10/13 08:31:17;;;;;;;22.70;12.03;;;10.10;99.90;;;;;;4992955;28;21050;-46
2022/10/13 08:33:46;;;;;;;18.43;9.73;;;10.20;99.90;;;;;;4992732;28;20511;-46
2022/10/13 08:36:14;;;;;;;18.80;10.20;;;10.30;99.90;;;;;;4980794;28;20599;-46
2022/10/13 08:38:42;;;;;;;19.37;11.10;;;10.30;99.90;;;;;;4991742;28;20456;-46
2022/10/13 08:41:16;;;;;;;20.00;10.63;;;10.40;99.90;;;;;;4992996;28;21118;-47
2022/10/13 08:43:46;;;;;;;19.70;11.13;;;10.50;99.90;;;;;;4993261;28;20472;-46
2022/10/13 08:46:18;;;;;;;32.47;12.90;;;10.60;99.90;;;;;;4993296;28;20452;-46
2022/10/13 08:48:45;;;;;;;23.07;10.70;;;10.70;99.90;;;;;;4993475;28;20814;-48
2022/10/13 08:51:15;;;;;;;21.23;11.37;;;10.80;99.90;;;;;;4991334;28;20480;-47
2022/10/13 08:53:43;;;;;;;35.03;12.40;;;10.80;99.90;;;;;;4987619;28;21523;-47
2022/10/13 08:56:17;;;;;;;23.83;11.73;;;11.00;99.90;;;;;;5006799;28;20496;-46
2022/10/13 08:58:44;;;;;;;20.07;12.57;;;11.00;99.90;;;;;;4999318;28;20452;-47
2022/10/13 09:01:13;;;;;;;20.90;12.63;;;11.20;99.90;;;;;;4989331;28;20511;-46
2022/10/13 09:03:48;;;;;;;23.10;11.57;;;11.30;99.90;;;;;;4989661;28;21002;-46
2022/10/13 09:06:26;;;;;;;21.30;11.90;;;11.30;99.90;;;;;;5036009;22;20552;-51
2022/10/13 09:08:55;;;;;;;23.83;13.00;;;11.40;99.90;;;;;;5031769;28;20463;-50
2022/10/13 09:11:22;;;;;;;18.97;11.37;;;11.40;99.90;;;;;;5029963;28;20487;-51
2022/10/13 09:13:54;;;;;;;20.10;11.90;;;11.50;99.90;;;;;;5023880;28;20506;-50
2022/10/13 09:16:27;;;;;;;21.43;12.37;;;11.50;99.90;;;;;;5022327;28;20541;-51
2022/10/13 09:18:54;;;;;;;26.70;11.53;;;11.60;99.90;;;;;;5031071;28;20459;-50
2022/10/13 09:21:24;;;;;;;23.03;11.93;;;11.60;99.90;;;;;;5029440;28;20458;-50
2022/10/13 09:23:52;;;;;;;22.00;11.43;;;11.60;99.90;;;;;;5016529;28;20490;-51
2022/10/13 09:26:22;;;;;;;25.20;11.70;;;11.70;99.90;;;;;;5025325;28;20517;-50
2022/10/13 09:28:49;;;;;;;21.40;12.10;;;11.80;99.90;;;;;;5030893;28;20493;-50
2022/10/13 09:31:21;;;;;;;18.90;11.00;;;11.80;99.90;;;;;;5032204;28;20533;-51
2022/10/13 09:33:57;;;;;;;27.60;11.77;;;11.80;99.90;;;;;;5028243;28;20856;-50
2022/10/13 09:36:25;;;;;;;19.83;11.63;;;11.90;99.90;;;;;;5027767;28;20478;-50
2022/10/13 09:39:08;;;;;;;16.53;11.83;;;11.90;99.90;;;;;;5031738;28;20955;-50
2022/10/13 09:41:35;;;;;;;18.40;11.50;;;12.00;99.90;;;;;;5016853;28;20501;-50
2022/10/13 09:44:10;;;;;;;21.90;12.77;;;12.10;99.90;;;;;;5026980;28;20459;-50
2022/10/13 09:46:45;;;;;;;25.50;12.20;;;12.10;99.90;;;;;;5023312;28;20893;-51
2022/10/13 09:49:29;;;;;;;21.90;12.07;;;12.20;99.90;;;;;;5022613;28;20496;-51
2022/10/13 09:52:02;;;;;;;20.23;11.90;;;12.20;99.90;;;;;;5026301;28;20533;-51
2022/10/13 09:54:37;;;;;;;35.27;12.00;;;12.30;99.90;;;;;;5029066;28;20486;-50
2022/10/13 09:57:07;;;;;;;18.90;12.03;;;12.30;99.90;;;;;;5029256;28;20463;-50
2022/10/13 09:59:36;;;;;;;21.23;13.17;;;12.40;99.90;;;;;;5025308;28;20463;-50
2022/10/13 10:02:17;;;;;;;26.33;14.20;;;12.40;99.90;;;;;;5021191;28;20838;-50
2022/10/13 10:04:44;;;;;;;14.43;11.20;;;12.50;99.90;;;;;;5022581;28;21003;-51
2022/10/13 10:07:16;;;;;;;21.63;12.23;;;12.50;99.90;;;;;;5027590;28;20455;-50
2022/10/13 10:09:47;;;;;;;22.90;12.30;;;12.60;99.90;;;;;;5025348;28;20459;-50
2022/10/13 10:12:18;;;;;;;18.77;12.10;;;12.70;99.90;;;;;;5030871;28;20482;-51
2022/10/13 10:14:47;;;;;;;20.57;12.60;;;12.70;99.90;;;;;;5025988;28;21092;-50
2022/10/13 10:17:20;;;;;;;18.40;11.93;;;12.80;99.90;;;;;;5028687;28;20951;-51
2022/10/13 10:19:58;;;;;;;17.13;12.10;;;12.90;99.90;;;;;;5025798;28;20830;-50
2022/10/13 10:22:35;;;;;;;19.23;12.50;;;13.00;99.90;;;;;;5028491;28;20451;-49
2022/10/13 10:25:10;;;;;;;22.23;12.33;;;13.10;99.90;;;;;;5030575;28;20458;-47
2022/10/13 10:27:42;;;;;;;21.10;12.70;;;13.10;99.90;;;;;;5032409;28;20445;-48
2022/10/13 10:30:15;;;;;;;18.57;12.70;;;13.10;99.90;;;;;;5030321;28;20463;-48
2022/10/13 10:32:47;;;;;;;19.83;13.13;;;13.20;99.90;;;;;;5026359;28;20486;-47
2022/10/13 10:35:19;;;;;;;16.80;12.40;;;13.30;99.90;;;;;;5024984;28;20490;-48
2022/10/13 10:38:02;;;;;;;30.40;13.00;;;13.50;99.90;;;;;;5028927;28;20470;-48
2022/10/13 10:40:38;;;;;;;20.03;12.90;;;13.60;99.90;;;;;;5023957;28;20459;-49
2022/10/13 10:43:32;;;;;;;25.93;12.67;;;13.70;99.90;;;;;;5028719;28;20494;-49
2022/10/13 10:46:00;;;;;;;19.77;11.70;;;13.60;99.90;;;;;;5028736;28;20482;-48
2022/10/13 10:48:32;;;;;;;17.90;11.47;;;13.70;99.90;;;;;;5025110;28;20477;-48
2022/10/13 10:50:59;;;;;;;23.13;13.07;;;13.90;99.90;;;;;;5026770;28;20458;-47
2022/10/13 10:53:34;;;;;;;24.13;12.90;;;14.00;99.90;;;;;;5026367;28;20907;-48
2022/10/13 10:56:07;;;;;;;17.40;11.57;;;14.00;99.90;;;;;;5023849;28;20486;-47
2022/10/13 10:58:41;;;;;;;20.37;10.90;;;14.00;99.90;;;;;;5026035;28;20459;-48
2022/10/13 11:01:24;;;;;;;22.77;11.80;;;14.10;99.90;;;;;;5030719;28;20439;-48
2022/10/13 11:03:57;;;;;;;21.30;10.77;;;14.20;99.90;;;;;;5032129;28;20447;-49
2022/10/13 11:06:32;;;;;;;23.83;12.50;;;14.10;99.90;;;;;;5028876;28;20490;-48
2022/10/13 11:09:01;;;;;;;23.50;11.73;;;14.10;99.90;;;;;;5030073;28;20970;-49
2022/10/13 11:11:37;;;;;;;20.97;11.10;;;14.10;99.90;;;;;;5031360;28;20457;-48
2022/10/13 11:14:25;;;;;;;19.77;11.07;;;14.10;99.90;;;;;;5029813;28;20688;-48
2022/10/13 11:17:14;;;;;;;16.50;11.37;;;14.10;99.90;;;;;;5029393;28;20520;-49
2022/10/13 11:19:41;;;;;;;17.63;9.63;;;14.20;99.90;;;;;;5018301;28;20964;-48
2022/10/13 11:22:19;;;;;;;27.90;12.70;;;14.30;99.90;;;;;;5025371;28;20455;-48
2022/10/13 11:25:21;;;;;;;26.33;11.70;;;14.30;99.90;;;;;;5027282;28;20482;-49
2022/10/13 11:27:48;;;;;;;17.70;11.20;;;14.40;99.90;;;;;;5011524;28;20488;-48
2022/10/13 11:30:46;;;;;;;25.77;12.70;;;14.50;99.90;;;;;;5024183;28;20455;-51
2022/10/13 11:33:50;;;;;;;17.57;12.53;;;14.60;99.90;;;;;;5025585;28;20485;-48
2022/10/13 11:36:39;;;;;;;34.37;13.20;;;14.60;99.90;;;;;;5025456;28;21046;-46
2022/10/13 11:39:34;;;;;;;26.23;11.93;;;14.70;99.90;;;;;;5026688;28;20467;-47
2022/10/13 11:42:18;;;;;;;17.60;12.53;;;14.60;99.90;;;;;;5028028;28;20455;-47
2022/10/13 11:44:52;;;;;;;19.80;12.07;;;14.60;99.90;;;;;;5040061;28;20478;-47
2022/10/13 11:47:43;;;;;;;26.53;13.27;;;14.40;99.90;;;;;;5035893;28;20937;-47
2022/10/13 11:50:20;;;;;;;28.13;12.67;;;14.50;99.90;;;;;;5026825;28;20590;-47
2022/10/13 11:53:03;;;;;;;23.90;12.57;;;14.50;99.90;;;;;;5026910;28;20479;-48
2022/10/13 11:55:37;;;;;;;24.43;13.43;;;14.50;99.90;;;;;;5020732;28;21793;-47
2022/10/13 11:58:16;;;;;;;23.23;11.67;;;14.60;99.90;;;;;;5019582;28;20517;-47
2022/10/13 12:00:56;;;;;;;17.73;10.50;;;14.70;99.90;;;;;;5026728;28;20462;-47
2022/10/13 12:03:26;;;;;;;20.73;12.53;;;14.80;99.90;;;;;;5027328;28;21112;-47
2022/10/13 12:05:55;;;;;;;17.70;11.30;;;14.90;99.90;;;;;;5021066;28;20491;-46
2022/10/13 12:08:22;;;;;;;20.60;11.87;;;14.90;99.90;;;;;;5027698;28;20467;-47
2022/10/13 12:10:56;;;;;;;19.73;12.63;;;14.90;99.90;;;;;;5026280;28;20513;-48
2022/10/13 12:13:26;;;;;;;18.80;11.03;;;15.00;99.90;;;;;;5025321;28;21066;-47
2022/10/13 12:16:02;;;;;;;22.23;11.87;;;15.00;99.90;;;;;;5023893;28;20511;-47
2022/10/13 12:18:32;;;;;;;29.13;12.37;;;15.00;99.90;;;;;;5026830;28;20458;-47
2022/10/13 12:21:01;;;;;;;20.47;12.50;;;15.00;99.90;;;;;;5031188;28;20463;-51
2022/10/13 12:23:29;;;;;;;26.57;12.83;;;15.00;99.90;;;;;;5032664;28;20508;-47
2022/10/13 12:25:57;;;;;;;22.23;10.60;;;15.10;99.90;;;;;;5022328;28;20482;-46
2022/10/13 12:28:27;;;;;;;19.83;11.87;;;15.20;99.90;;;;;;5032392;28;20458;-46
2022/10/13 12:30:56;;;;;;;26.03;11.70;;;15.30;99.90;;;;;;5029433;28;20462;-46
2022/10/13 12:33:27;;;;;;;16.77;11.37;;;15.30;99.90;;;;;;5029921;28;20532;-46
2022/10/13 12:35:54;;;;;;;24.57;11.70;;;15.40;99.90;;;;;;5028345;28;20544;-46
2022/10/13 12:38:21;;;;;;;17.60;11.17;;;15.50;99.90;;;;;;5029559;28;20520;-46
2022/10/13 12:40:49;;;;;;;23.30;9.80;;;15.60;99.90;;;;;;5026051;28;20525;-49
2022/10/13 12:43:19;;;;;;;21.63;10.83;;;15.60;99.90;;;;;;5028241;28;20524;-51
2022/10/13 12:45:47;;;;;;;17.50;10.13;;;15.70;99.90;;;;;;5025987;28;20554;-51
2022/10/13 12:48:30;;;;;;;15.20;11.53;;;15.60;99.90;;;;;;5022241;28;20577;-47
2022/10/13 12:51:17;;;;;;;15.50;9.83;;;15.50;99.90;;;;;;5025997;28;20454;-47
2022/10/13 12:53:45;;;;;;;18.43;11.33;;;15.50;99.90;;;;;;5032707;28;20495;-46
2022/10/13 12:56:24;;;;;;;19.83;10.67;;;15.50;99.90;;;;;;5028128;28;20540;-46